Weather History for Pagosa Springs, CO

Change the Weather History Date:

Wednesday, November 21, 2012

  Actual Average (KDRO) Record (KDRO)
Temperature  
Mean Temperature 38 °F 34 °F  
Max Temperature 55 °F 47 °F 67 °F (1989)
Min Temperature 22 °F 20 °F 5 °F (1979)
Degree Days  
Heating Degree Days 26 31  
Month to date heating degree days 585  
Since 1 July heating degree days 1373  
Cooling Degree Days 0 0  
Month to date cooling degree days 0  
Year to date cooling degree days 243  
Moisture  
Dew Point 14 °F    
Average Humidity 47    
Maximum Humidity 79    
Minimum Humidity 12    
Precipitation  
Precipitation 0.00 in 0.07 in 0.70 in (1983)
Month to date precipitation 1.24  
Year to date precipitation 14.46  
Sea Level Pressure  
Sea Level Pressure 30.26 in    
Wind  
Wind Speed 1 mph (SW)    
Max Wind Speed 10 mph    
Max Gust Speed -    
Visibility 10 miles    
Events Thunderstorm    
T = Trace of Precipitation, MM = Missing Value Source: NWS Daily Summary

Daily Weather History Graph

Daily Weather History Graph

Search for Another Location

Airport:

Trip Planner

Search our weather history database for the weather conditions in past years. The results will help you decide how hot, cold, wet, or windy it might be!

Date:

Astronomy

Nov. 21, 2012 Rise Set
Actual Time 6:54 AM MST 4:54 PM MST
Civil Twilight 6:26 AM MST 5:22 PM MST
Nautical Twilight 5:54 AM MST 5:54 PM MST
Astronomical Twilight 5:23 AM MST 6:25 PM MST
Moon 1:04 PM MST 12:24 AM MST
Length of Visible Light 10h 56m
Length of Day
9h 59m
Waxing Gibbous, 62% of the Moon is Illuminated
Nov 21
Waxing Gibbous
Nov 28
Full
Dec 6
Last Quarter
Dec 13
New
Dec 19
First Quarter

Hourly Weather History & Observations

Time (MST) Temp. Dew Point Humidity Pressure Visibility Wind Dir Wind Speed Gust Speed Precip Events Conditions
12:15 AM 27.9 °F 20.3 °F 73% 30.33 in 10.0 mi Calm Calm - N/A   Clear
12:35 AM 29.1 °F 19.0 °F 66% 30.34 in 10.0 mi Calm Calm - N/A   Clear
12:55 AM 27.1 °F 19.8 °F 74% 30.33 in 10.0 mi Calm Calm - N/A   Clear
1:15 AM 28.2 °F 19.4 °F 70% 30.33 in 10.0 mi Calm Calm - N/A   Clear
1:35 AM 27.5 °F 19.4 °F 72% 30.33 in 10.0 mi Calm Calm - N/A   Clear
1:55 AM 27.1 °F 19.4 °F 73% 30.32 in 10.0 mi Calm Calm - N/A   Clear
2:15 AM 26.2 °F 19.4 °F 75% 30.33 in 10.0 mi Calm Calm - N/A   Clear
2:35 AM 27.1 °F 18.9 °F 71% 30.32 in 10.0 mi Calm Calm - N/A   Clear
2:55 AM 27.1 °F 19.6 °F 73% 30.31 in 10.0 mi Calm Calm - N/A   Clear
3:15 AM 26.8 °F 18.7 °F 72% 30.31 in 10.0 mi Calm Calm - N/A   Clear
3:35 AM 28.4 °F 18.5 °F 66% 30.31 in 10.0 mi Calm Calm - N/A   Clear
3:55 AM 25.0 °F 19.0 °F 78% 30.31 in 10.0 mi Calm Calm - N/A   Clear
4:15 AM 26.6 °F 18.5 °F 71% 30.30 in 10.0 mi Calm Calm - N/A   Clear
4:35 AM 23.9 °F 17.8 °F 77% 30.30 in 10.0 mi Calm Calm - N/A   Clear
4:55 AM 24.6 °F 17.6 °F 75% 30.30 in 10.0 mi Calm Calm - N/A   Clear
5:15 AM 26.1 °F 17.8 °F 71% 30.30 in 10.0 mi Calm Calm - N/A   Clear
5:35 AM 22.6 °F 16.7 °F 78% 30.30 in 10.0 mi Calm Calm - N/A   Clear
5:55 AM 24.1 °F 17.2 °F 75% 30.30 in 10.0 mi Calm Calm - N/A   Clear
6:15 AM 24.1 °F 17.4 °F 76% 30.30 in 10.0 mi Calm Calm - N/A   Clear
6:35 AM 25.7 °F 17.4 °F 71% 30.31 in 10.0 mi Calm Calm - N/A   Clear
6:55 AM 23.2 °F 16.5 °F 76% 30.31 in 10.0 mi Calm Calm - N/A   Clear
7:15 AM 23.4 °F 17.6 °F 79% 30.32 in 10.0 mi Calm Calm - N/A   Clear
7:35 AM 25.5 °F 17.6 °F 72% 30.32 in 10.0 mi Calm Calm - N/A   Clear
7:55 AM 29.5 °F 20.3 °F 69% 30.32 in 10.0 mi Calm Calm - N/A   Clear
8:15 AM 31.8 °F 19.9 °F 62% 30.32 in 10.0 mi Calm Calm - N/A   Clear
8:35 AM 35.6 °F 18.0 °F 49% 30.33 in 10.0 mi Calm Calm - N/A   Clear
8:55 AM 38.1 °F 16.5 °F 42% 30.32 in 10.0 mi Calm Calm - N/A   Clear
9:15 AM 40.1 °F 15.3 °F 36% 30.32 in 10.0 mi Calm Calm - N/A   Clear
9:35 AM 43.7 °F 17.4 °F 35% 30.32 in 10.0 mi Calm Calm - N/A   Clear
9:55 AM 45.1 °F 14.0 °F 29% 30.32 in 10.0 mi Calm Calm - N/A   Clear
10:15 AM 47.1 °F 14.9 °F 28% 30.32 in 10.0 mi Calm Calm - N/A   Clear
10:35 AM 48.2 °F 13.3 °F 25% 30.31 in 10.0 mi Calm Calm - N/A   Clear
10:55 AM 49.3 °F 12.6 °F 23% 30.30 in 10.0 mi SSW 3.5 mph - N/A   Clear
11:15 AM 50.2 °F 12.7 °F 22% 30.29 in 10.0 mi SSE 4.6 mph - N/A   Clear
11:35 AM 50.9 °F 9.7 °F 19% 30.27 in 10.0 mi SW 4.6 mph - N/A   Clear
11:55 AM 51.6 °F 9.1 °F 18% 30.27 in 10.0 mi Calm Calm - N/A   Clear
12:15 PM 53.2 °F 8.4 °F 17% 30.26 in 10.0 mi Calm Calm - N/A   Clear
12:35 PM 53.6 °F 9.0 °F 17% 30.25 in 10.0 mi South 4.6 mph - N/A   Clear
12:55 PM 54.5 °F 8.8 °F 16% 30.24 in 10.0 mi Calm Calm - N/A   Clear
1:15 PM 54.9 °F 5.4 °F 14% 30.23 in 10.0 mi South 4.6 mph - N/A   Clear
1:35 PM 55.6 °F 3.9 °F 12% 30.22 in 10.0 mi SSW 8.1 mph - N/A Thunderstorm Clear
1:55 PM 55.4 °F 4.3 °F 13% 30.21 in 10.0 mi SW 6.9 mph - N/A   Clear
2:15 PM 55.8 °F 4.3 °F 13% 30.21 in 10.0 mi SSW 5.8 mph - N/A   Clear
2:35 PM 55.4 °F 3.9 °F 13% 30.21 in 10.0 mi SSW 8.1 mph - N/A   Clear
2:55 PM 55.9 °F 5.4 °F 13% 30.20 in 10.0 mi WSW 6.9 mph - N/A   Clear
3:15 PM 55.4 °F 4.5 °F 13% 30.20 in 10.0 mi SW 9.2 mph - N/A   Clear
3:35 PM 55.6 °F 5.5 °F 13% 30.20 in 10.0 mi SW 10.4 mph - N/A   Clear
3:55 PM 55.0 °F 4.8 °F 13% 30.19 in 10.0 mi WSW 10.4 mph - N/A   Clear
4:15 PM 54.1 °F 4.3 °F 13% 30.19 in 10.0 mi SW 8.1 mph - N/A   Clear
4:35 PM 52.9 °F 6.1 °F 15% 30.19 in 10.0 mi SW 6.9 mph - N/A   Clear
4:55 PM 51.3 °F 6.8 °F 17% 30.20 in 10.0 mi SW 4.6 mph - N/A   Clear
5:15 PM 43.2 °F 10.9 °F 27% 30.20 in 10.0 mi Calm Calm - N/A   Clear
5:35 PM 41.5 °F 10.2 °F 28% 30.21 in 10.0 mi Calm Calm - N/A   Clear
5:55 PM 39.9 °F 11.3 °F 31% 30.21 in 10.0 mi Calm Calm - N/A   Clear
6:15 PM 36.3 °F 13.6 °F 39% 30.21 in 10.0 mi Calm Calm - N/A   Clear
6:35 PM 36.1 °F 14.5 °F 41% 30.22 in 10.0 mi Calm Calm - N/A   Clear
6:55 PM 34.9 °F 15.6 °F 45% 30.22 in 10.0 mi Calm Calm - N/A   Clear
7:15 PM 36.3 °F 14.7 °F 41% 30.22 in 10.0 mi Calm Calm - N/A   Clear
7:35 PM 32.4 °F 14.7 °F 48% 30.22 in 10.0 mi Calm Calm - N/A   Clear
7:55 PM 33.3 °F 14.7 °F 47% 30.23 in 10.0 mi Calm Calm - N/A   Clear
8:15 PM 32.7 °F 14.5 °F 47% 30.23 in 10.0 mi Calm Calm - N/A   Clear
8:35 PM 32.0 °F 15.1 °F 50% 30.23 in 10.0 mi Calm Calm - N/A   Clear
8:55 PM 31.5 °F 14.0 °F 49% 30.22 in 10.0 mi Calm Calm - N/A   Clear
9:15 PM 30.0 °F 15.1 °F 54% 30.22 in 10.0 mi Calm Calm - N/A   Clear
9:35 PM 30.7 °F 14.7 °F 52% 30.22 in 10.0 mi Calm Calm - N/A   Clear
9:55 PM 31.3 °F 15.4 °F 52% 30.22 in 10.0 mi Calm Calm - N/A   Clear
10:15 PM 30.4 °F 16.0 °F 55% 30.23 in 10.0 mi Calm Calm - N/A   Clear
10:35 PM 28.0 °F 16.0 °F 61% 30.22 in 10.0 mi Calm Calm - N/A   Clear
10:55 PM 26.4 °F 15.6 °F 64% 30.22 in 10.0 mi Calm Calm - N/A   Clear
11:15 PM 29.7 °F 14.9 °F 54% 30.22 in 10.0 mi Calm Calm - N/A   Clear
11:35 PM 29.8 °F 15.8 °F 56% 30.22 in 10.0 mi Calm Calm - N/A   Clear
11:55 PM 27.9 °F 15.3 °F 59% 30.22 in 10.0 mi Calm Calm - N/A   Clear